sensor_id;sensor_type;location;lat;lon;timestamp;pressure;altitude;pressure_sealevel;temperature;humidity
22775;BME280;11554;51.106;3.684;2023-05-22T00:00:00;101661.64;;;12.31;100.0
22775;BME280;11554;51.106;3.684;2023-05-22T00:05:00;101659.61;;;12.32;100.0
22775;BME280;11554;51.106;3.684;2023-05-22T00:10:00;101656.74;;;12.35;100.0
22775;BME280;11554;51.106;3.684;2023-05-22T00:15:00;101660.35;;;12.36;100.0
22775;BME280;11554;51.106;3.684;2023-05-22T00:20:00;101654.88;;;12.34;100.0
22775;BME280;11554;51.106;3.684;2023-05-22T00:25:00;101657.5;;;12.36;100.0
22775;BME280;11554;51.106;3.684;2023-05-22T00:30:00;101646.45000000001;;;12.37;100.0
22775;BME280;11554;51.106;3.684;2023-05-22T00:35:00;101644.95;;;12.35;100.0
22775;BME280;11554;51.106;3.684;2023-05-22T00:40:00;101640.45;;;12.31;100.0
22775;BME280;11554;51.106;3.684;2023-05-22T00:45:00;101639.87;;;12.28;100.0
22775;BME280;11554;51.106;3.684;2023-05-22T00:50:00;101634.81;;;12.27;100.0
22775;BME280;11554;51.106;3.684;2023-05-22T00:55:00;101634.09;;;12.28;100.0
22775;BME280;11554;51.106;3.684;2023-05-22T01:00:00;101630.7;;;12.29;100.0
22775;BME280;11554;51.106;3.684;2023-05-22T01:05:00;101624.55;;;12.29;100.0
22775;BME280;11554;51.106;3.684;2023-05-22T01:10:00;101623.81;;;12.31;100.0
22775;BME280;11554;51.106;3.684;2023-05-22T01:15:02;101619.72;;;12.31;100.0
22775;BME280;11554;51.106;3.684;2023-05-22T01:20:03;101613.76000000001;;;12.30;100.0
22775;BME280;11554;51.106;3.684;2023-05-22T01:25:08;101610.97;;;12.27;100.0
22775;BME280;11554;51.106;3.684;2023-05-22T01:30:02;101608.34;;;12.27;100.0
22775;BME280;11554;51.106;3.684;2023-05-22T01:35:00;101613.23999999999;;;12.30;100.0
22775;BME280;11554;51.106;3.684;2023-05-22T01:40:00;101607.29;;;12.33;100.0
22775;BME280;11554;51.106;3.684;2023-05-22T01:45:00;101610.47;;;12.33;100.0
22775;BME280;11554;51.106;3.684;2023-05-22T01:50:00;101604.17;;;12.34;100.0
22775;BME280;11554;51.106;3.684;2023-05-22T01:55:02;101602.84;;;12.33;100.0
22775;BME280;11554;51.106;3.684;2023-05-22T02:00:02;101597.69;;;12.33;100.0
22775;BME280;11554;51.106;3.684;2023-05-22T02:05:00;101596.64;;;12.33;100.0
22775;BME280;11554;51.106;3.684;2023-05-22T02:10:00;101594.17;;;12.36;100.0
22775;BME280;11554;51.106;3.684;2023-05-22T02:15:00;101602.52;;;12.36;100.0
22775;BME280;11554;51.106;3.684;2023-05-22T02:20:00;101596.15;;;12.38;100.0
22775;BME280;11554;51.106;3.684;2023-05-22T02:25:00;101593.94;;;12.37;100.0
22775;BME280;11554;51.106;3.684;2023-05-22T02:30:00;101592.02;;;12.39;100.0
22775;BME280;11554;51.106;3.684;2023-05-22T02:35:00;101593.52;;;12.40;100.0
22775;BME280;11554;51.106;3.684;2023-05-22T02:40:00;101595.24;;;12.42;100.0
22775;BME280;11554;51.106;3.684;2023-05-22T02:45:00;101590.3;;;12.42;100.0
22775;BME280;11554;51.106;3.684;2023-05-22T02:50:00;101592.11;;;12.41;100.0
22775;BME280;11554;51.106;3.684;2023-05-22T02:55:00;101586.98000000001;;;12.39;100.0
22775;BME280;11554;51.106;3.684;2023-05-22T03:00:00;101580.22;;;12.40;100.0
22775;BME280;11554;51.106;3.684;2023-05-22T03:05:00;101575.81;;;12.38;100.0
22775;BME280;11554;51.106;3.684;2023-05-22T03:10:00;101576.5;;;12.38;100.0
22775;BME280;11554;51.106;3.684;2023-05-22T03:15:00;101576.42;;;12.35;100.0
22775;BME280;11554;51.106;3.684;2023-05-22T03:20:00;101574.86;;;12.34;100.0
22775;BME280;11554;51.106;3.684;2023-05-22T03:25:00;101582.54;;;12.36;100.0
22775;BME280;11554;51.106;3.684;2023-05-22T03:30:00;101576.11;;;12.34;100.0
22775;BME280;11554;51.106;3.684;2023-05-22T03:35:00;101569.2;;;12.32;100.0
22775;BME280;11554;51.106;3.684;2023-05-22T03:40:00;101562.0;;;12.28;100.0
22775;BME280;11554;51.106;3.684;2023-05-22T03:45:00;101565.92000000001;;;12.28;100.0
22775;BME280;11554;51.106;3.684;2023-05-22T03:50:00;101575.19;;;12.28;100.0
22775;BME280;11554;51.106;3.684;2023-05-22T03:55:00;101572.97;;;12.27;100.0
22775;BME280;11554;51.106;3.684;2023-05-22T04:00:00;101574.37999999999;;;12.28;100.0
22775;BME280;11554;51.106;3.684;2023-05-22T04:05:00;101573.8;;;12.30;100.0
22775;BME280;11554;51.106;3.684;2023-05-22T04:10:00;101574.69;;;12.30;100.0
22775;BME280;11554;51.106;3.684;2023-05-22T04:15:00;101571.91;;;12.30;100.0
22775;BME280;11554;51.106;3.684;2023-05-22T04:20:00;101570.7;;;12.29;100.0
22775;BME280;11554;51.106;3.684;2023-05-22T04:25:00;101571.40000000001;;;12.27;100.0
22775;BME280;11554;51.106;3.684;2023-05-22T04:30:01;101571.26;;;12.27;100.0
22775;BME280;11554;51.106;3.684;2023-05-22T04:35:00;101575.17;;;12.31;100.0
22775;BME280;11554;51.106;3.684;2023-05-22T04:40:00;101579.17;;;12.36;100.0
22775;BME280;11554;51.106;3.684;2023-05-22T04:45:00;101584.06999999999;;;12.42;100.0
22775;BME280;11554;51.106;3.684;2023-05-22T04:50:00;101579.94;;;12.43;100.0
22775;BME280;11554;51.106;3.684;2023-05-22T04:55:00;101582.43;;;12.51;100.0
22775;BME280;11554;51.106;3.684;2023-05-22T05:00:00;101587.73;;;12.61;100.0
22775;BME280;11554;51.106;3.684;2023-05-22T05:05:00;101589.34000000001;;;12.68;100.0
22775;BME280;11554;51.106;3.684;2023-05-22T05:10:00;101590.48;;;12.72;100.0
22775;BME280;11554;51.106;3.684;2023-05-22T05:15:00;101594.78;;;12.69;100.0
22775;BME280;11554;51.106;3.684;2023-05-22T05:20:00;101595.09000000001;;;12.71;100.0
22775;BME280;11554;51.106;3.684;2023-05-22T05:30:00;101598.56;;;12.83;100.0
22775;BME280;11554;51.106;3.684;2023-05-22T05:35:00;101595.84999999999;;;12.82;100.0
22775;BME280;11554;51.106;3.684;2023-05-22T05:40:00;101596.26;;;12.87;100.0
22775;BME280;11554;51.106;3.684;2023-05-22T05:45:00;101594.75;;;12.95;100.0
22775;BME280;11554;51.106;3.684;2023-05-22T05:50:00;101597.05;;;13.08;100.0
22775;BME280;11554;51.106;3.684;2023-05-22T05:55:00;101596.15;;;13.05;100.0
22775;BME280;11554;51.106;3.684;2023-05-22T06:00:00;101604.88;;;13.09;100.0
22775;BME280;11554;51.106;3.684;2023-05-22T06:05:00;101605.94;;;13.18;100.0
22775;BME280;11554;51.106;3.684;2023-05-22T06:10:00;101613.09999999999;;;13.20;100.0
22775;BME280;11554;51.106;3.684;2023-05-22T06:15:00;101610.78;;;13.25;100.0
22775;BME280;11554;51.106;3.684;2023-05-22T06:20:00;101616.58;;;13.30;100.0
22775;BME280;11554;51.106;3.684;2023-05-22T06:25:00;101622.62;;;13.30;100.0
22775;BME280;11554;51.106;3.684;2023-05-22T06:30:00;101631.39;;;13.38;100.0
22775;BME280;11554;51.106;3.684;2023-05-22T06:35:00;101629.45999999999;;;13.44;100.0
22775;BME280;11554;51.106;3.684;2023-05-22T06:40:00;101636.55;;;13.59;100.0
22775;BME280;11554;51.106;3.684;2023-05-22T06:45:00;101642.19;;;13.65;100.0
22775;BME280;11554;51.106;3.684;2023-05-22T06:50:00;101644.39;;;13.64;100.0
22775;BME280;11554;51.106;3.684;2023-05-22T06:55:00;101639.70000000001;;;13.81;100.0
22775;BME280;11554;51.106;3.684;2023-05-22T07:00:00;101644.61;;;13.93;100.0
22775;BME280;11554;51.106;3.684;2023-05-22T07:05:00;101644.3;;;14.10;100.0
22775;BME280;11554;51.106;3.684;2023-05-22T07:10:00;101644.61;;;14.14;100.0
22775;BME280;11554;51.106;3.684;2023-05-22T07:15:00;101646.7;;;14.19;100.0
22775;BME280;11554;51.106;3.684;2023-05-22T07:20:00;101650.01;;;14.35;100.0
22775;BME280;11554;51.106;3.684;2023-05-22T07:25:00;101664.5;;;14.32;100.0
22775;BME280;11554;51.106;3.684;2023-05-22T07:30:00;101665.11;;;14.45;100.0
22775;BME280;11554;51.106;3.684;2023-05-22T07:35:00;101669.84999999999;;;14.60;100.0
22775;BME280;11554;51.106;3.684;2023-05-22T07:40:00;101684.79;;;14.59;100.0
22775;BME280;11554;51.106;3.684;2023-05-22T07:45:00;101686.05;;;14.78;100.0
22775;BME280;11554;51.106;3.684;2023-05-22T07:50:00;101690.62;;;14.78;100.0
22775;BME280;11554;51.106;3.684;2023-05-22T07:55:00;101692.22;;;14.79;100.0
22775;BME280;11554;51.106;3.684;2023-05-22T08:00:00;101692.65000000001;;;14.92;100.0
22775;BME280;11554;51.106;3.684;2023-05-22T08:05:00;101697.09;;;15.00;100.0
22775;BME280;11554;51.106;3.684;2023-05-22T08:10:01;101698.89;;;15.15;100.0
22775;BME280;11554;51.106;3.684;2023-05-22T08:15:00;101699.78;;;15.16;100.0
22775;BME280;11554;51.106;3.684;2023-05-22T08:20:00;101693.62999999999;;;15.35;100.0
22775;BME280;11554;51.106;3.684;2023-05-22T08:25:00;101691.0;;;15.61;100.0
22775;BME280;11554;51.106;3.684;2023-05-22T08:30:00;101693.95;;;15.80;100.0
22775;BME280;11554;51.106;3.684;2023-05-22T08:35:00;101697.88;;;15.91;100.0
22775;BME280;11554;51.106;3.684;2023-05-22T08:40:00;101700.9;;;16.13;100.0
22775;BME280;11554;51.106;3.684;2023-05-22T08:45:00;101689.94;;;16.14;100.0
22775;BME280;11554;51.106;3.684;2023-05-22T08:50:00;101691.72;;;16.31;100.0
22775;BME280;11554;51.106;3.684;2023-05-22T08:55:01;101685.56999999999;;;16.57;100.0
22775;BME280;11554;51.106;3.684;2023-05-22T09:00:00;101690.55;;;16.70;100.0
22775;BME280;11554;51.106;3.684;2023-05-22T09:05:00;101693.72;;;16.98;100.0
22775;BME280;11554;51.106;3.684;2023-05-22T09:10:00;101696.75;;;16.95;100.0
22775;BME280;11554;51.106;3.684;2023-05-22T09:15:06;101695.06;;;16.98;100.0
22775;BME280;11554;51.106;3.684;2023-05-22T09:20:00;101691.24;;;17.03;100.0
22775;BME280;11554;51.106;3.684;2023-05-22T09:25:00;101695.22;;;17.05;100.0
22775;BME280;11554;51.106;3.684;2023-05-22T09:30:00;101690.8;;;17.19;100.0
22775;BME280;11554;51.106;3.684;2023-05-22T09:35:02;101695.33;;;17.30;99.45
22775;BME280;11554;51.106;3.684;2023-05-22T09:40:02;101688.16;;;17.31;98.7
22775;BME280;11554;51.106;3.684;2023-05-22T09:45:01;101688.16;;;17.83;99.54
22775;BME280;11554;51.106;3.684;2023-05-22T09:50:01;101688.7;;;17.95;96.51
22775;BME280;11554;51.106;3.684;2023-05-22T09:55:01;101688.59999999999;;;18.09;96.7
22775;BME280;11554;51.106;3.684;2023-05-22T10:00:00;101679.67;;;18.23;95.71
22775;BME280;11554;51.106;3.684;2023-05-22T10:05:00;101677.37;;;18.29;95.09
22775;BME280;11554;51.106;3.684;2023-05-22T10:10:01;101670.09000000001;;;18.52;94.4
22775;BME280;11554;51.106;3.684;2023-05-22T10:15:00;101675.76000000001;;;18.69;93.28
22775;BME280;11554;51.106;3.684;2023-05-22T10:20:00;101682.39;;;19.02;93.0
22775;BME280;11554;51.106;3.684;2023-05-22T10:25:00;101673.8;;;19.13;92.02
22775;BME280;11554;51.106;3.684;2023-05-22T10:30:01;101673.01;;;19.02;91.14
22775;BME280;11554;51.106;3.684;2023-05-22T10:35:02;101676.22;;;19.12;91.6
22775;BME280;11554;51.106;3.684;2023-05-22T10:40:00;101676.78;;;19.54;90.82
22775;BME280;11554;51.106;3.684;2023-05-22T10:45:00;101677.8;;;19.38;90.12
22775;BME280;11554;51.106;3.684;2023-05-22T10:50:02;101677.73999999999;;;19.33;89.1
22775;BME280;11554;51.106;3.684;2023-05-22T10:55:00;101682.93;;;19.58;89.94
22775;BME280;11554;51.106;3.684;2023-05-22T11:00:05;101673.20999999999;;;20.17;89.3
22775;BME280;11554;51.106;3.684;2023-05-22T11:05:10;101669.47;;;20.88;86.52
22775;BME280;11554;51.106;3.684;2023-05-22T11:10:00;101668.36;;;21.01;86.4
22775;BME280;11554;51.106;3.684;2023-05-22T11:15:01;101671.42;;;21.21;84.68
22775;BME280;11554;51.106;3.684;2023-05-22T11:20:01;101676.26000000001;;;21.73;83.32
22775;BME280;11554;51.106;3.684;2023-05-22T11:25:02;101679.47;;;21.50;82.91
22775;BME280;11554;51.106;3.684;2023-05-22T11:30:00;101681.44;;;21.37;83.11
22775;BME280;11554;51.106;3.684;2023-05-22T11:35:00;101686.72;;;21.01;83.79
22775;BME280;11554;51.106;3.684;2023-05-22T11:40:02;101677.4;;;20.91;85.57
22775;BME280;11554;51.106;3.684;2023-05-22T11:45:00;101672.19;;;21.23;84.57
22775;BME280;11554;51.106;3.684;2023-05-22T11:50:00;101665.72;;;21.59;83.72
22775;BME280;11554;51.106;3.684;2023-05-22T11:55:00;101667.86;;;21.80;83.78
22775;BME280;11554;51.106;3.684;2023-05-22T12:00:00;101667.92;;;22.52;81.74
22775;BME280;11554;51.106;3.684;2023-05-22T12:05:00;101669.34;;;23.06;80.09
22775;BME280;11554;51.106;3.684;2023-05-22T12:10:00;101671.12;;;23.16;79.95
22775;BME280;11554;51.106;3.684;2023-05-22T12:15:03;101673.75;;;23.78;80.35
22775;BME280;11554;51.106;3.684;2023-05-22T12:20:00;101676.31;;;23.22;77.48
22775;BME280;11554;51.106;3.684;2023-05-22T12:25:00;101675.81;;;22.71;79.59
22775;BME280;11554;51.106;3.684;2023-05-22T12:30:07;101672.74;;;22.29;81.07
22775;BME280;11554;51.106;3.684;2023-05-22T12:35:00;101672.58;;;22.19;80.76
22775;BME280;11554;51.106;3.684;2023-05-22T12:40:01;101676.17;;;21.66;81.46
22775;BME280;11554;51.106;3.684;2023-05-22T12:45:00;101676.22;;;21.02;82.89
22775;BME280;11554;51.106;3.684;2023-05-22T12:50:00;101680.43000000001;;;21.04;83.55
22775;BME280;11554;51.106;3.684;2023-05-22T12:55:00;101680.35;;;20.56;83.75
22775;BME280;11554;51.106;3.684;2023-05-22T13:00:00;101681.98;;;20.26;85.16
22775;BME280;11554;51.106;3.684;2023-05-22T13:05:00;101689.36;;;20.03;85.8
22775;BME280;11554;51.106;3.684;2023-05-22T13:10:01;101684.98;;;20.40;84.01
22775;BME280;11554;51.106;3.684;2023-05-22T13:15:00;101688.28;;;20.65;83.97
22775;BME280;11554;51.106;3.684;2023-05-22T13:20:00;101697.34;;;20.67;82.53
22775;BME280;11554;51.106;3.684;2023-05-22T13:25:00;101701.25;;;20.42;82.45
22775;BME280;11554;51.106;3.684;2023-05-22T13:30:00;101700.75;;;20.42;81.96
22775;BME280;11554;51.106;3.684;2023-05-22T13:35:00;101702.48;;;20.78;82.39
22775;BME280;11554;51.106;3.684;2023-05-22T13:40:00;101706.33;;;20.71;80.47
22775;BME280;11554;51.106;3.684;2023-05-22T13:45:00;101702.86;;;20.63;81.07
22775;BME280;11554;51.106;3.684;2023-05-22T13:50:00;101700.62000000001;;;20.79;81.86
22775;BME280;11554;51.106;3.684;2023-05-22T13:55:00;101704.58;;;21.23;80.63
22775;BME280;11554;51.106;3.684;2023-05-22T14:00:00;101704.49;;;20.98;80.64
22775;BME280;11554;51.106;3.684;2023-05-22T14:05:00;101705.36;;;21.02;81.57
22775;BME280;11554;51.106;3.684;2023-05-22T14:10:00;101702.84;;;20.90;80.96
22775;BME280;11554;51.106;3.684;2023-05-22T14:15:00;101707.53;;;20.83;80.96
22775;BME280;11554;51.106;3.684;2023-05-22T14:20:00;101708.15;;;20.65;81.12
22775;BME280;11554;51.106;3.684;2023-05-22T14:25:00;101699.89;;;20.87;82.02
22775;BME280;11554;51.106;3.684;2023-05-22T14:30:00;101702.29000000001;;;20.94;81.62
22775;BME280;11554;51.106;3.684;2023-05-22T14:35:00;101704.85;;;20.88;83.06
22775;BME280;11554;51.106;3.684;2023-05-22T14:40:00;101699.2;;;20.88;81.55
22775;BME280;11554;51.106;3.684;2023-05-22T14:45:00;101706.56;;;20.37;82.33
22775;BME280;11554;51.106;3.684;2023-05-22T14:50:00;101705.03;;;19.93;83.79
22775;BME280;11554;51.106;3.684;2023-05-22T14:55:00;101709.17;;;19.91;85.25
22775;BME280;11554;51.106;3.684;2023-05-22T15:00:00;101714.08;;;19.87;85.1
22775;BME280;11554;51.106;3.684;2023-05-22T15:05:00;101709.31;;;19.73;85.64
22775;BME280;11554;51.106;3.684;2023-05-22T15:10:00;101715.59999999999;;;19.68;86.49
22775;BME280;11554;51.106;3.684;2023-05-22T15:15:00;101716.95999999999;;;19.56;85.84
22775;BME280;11554;51.106;3.684;2023-05-22T15:20:00;101714.9;;;19.55;86.37
22775;BME280;11554;51.106;3.684;2023-05-22T15:25:01;101716.67;;;19.35;86.93
22775;BME280;11554;51.106;3.684;2023-05-22T15:30:00;101725.14;;;18.88;89.86
22775;BME280;11554;51.106;3.684;2023-05-22T15:35:00;101721.98;;;19.23;90.21
22775;BME280;11554;51.106;3.684;2023-05-22T15:40:00;101726.44;;;19.15;89.8
22775;BME280;11554;51.106;3.684;2023-05-22T15:45:00;101718.91;;;19.52;90.24
22775;BME280;11554;51.106;3.684;2023-05-22T15:50:00;101730.69;;;19.36;89.4
22775;BME280;11554;51.106;3.684;2023-05-22T15:55:00;101729.53;;;19.30;89.76
22775;BME280;11554;51.106;3.684;2023-05-22T16:00:00;101728.44;;;19.05;90.64
22775;BME280;11554;51.106;3.684;2023-05-22T16:05:00;101730.03;;;19.24;90.11
22775;BME280;11554;51.106;3.684;2023-05-22T16:10:00;101726.92;;;19.55;89.56
22775;BME280;11554;51.106;3.684;2023-05-22T16:15:00;101731.46;;;19.50;89.18
22775;BME280;11554;51.106;3.684;2023-05-22T16:20:00;101734.74;;;19.28;90.11
22775;BME280;11554;51.106;3.684;2023-05-22T16:25:00;101730.68;;;19.46;89.73
22775;BME280;11554;51.106;3.684;2023-05-22T16:30:00;101733.54000000001;;;19.47;89.9
22775;BME280;11554;51.106;3.684;2023-05-22T16:35:00;101732.12;;;19.27;90.31
22775;BME280;11554;51.106;3.684;2023-05-22T16:40:00;101736.06;;;19.23;90.42
22775;BME280;11554;51.106;3.684;2023-05-22T16:45:00;101735.74;;;19.16;90.49
22775;BME280;11554;51.106;3.684;2023-05-22T16:50:00;101739.47;;;19.43;90.23
22775;BME280;11554;51.106;3.684;2023-05-22T16:55:00;101735.28;;;20.10;88.67
22775;BME280;11554;51.106;3.684;2023-05-22T17:00:00;101733.03;;;20.14;87.7
22775;BME280;11554;51.106;3.684;2023-05-22T17:05:00;101731.89;;;19.89;86.68
22775;BME280;11554;51.106;3.684;2023-05-22T17:10:00;101730.17;;;19.54;89.11
22775;BME280;11554;51.106;3.684;2023-05-22T17:15:00;101736.95999999999;;;19.44;89.46
22775;BME280;11554;51.106;3.684;2023-05-22T17:20:00;101732.14;;;19.40;89.45
22775;BME280;11554;51.106;3.684;2023-05-22T17:25:00;101735.0;;;19.39;89.71
22775;BME280;11554;51.106;3.684;2023-05-22T17:30:00;101731.12999999999;;;19.15;88.82
22775;BME280;11554;51.106;3.684;2023-05-22T17:35:00;101729.63;;;18.93;90.77
22775;BME280;11554;51.106;3.684;2023-05-22T17:40:00;101736.06;;;19.14;89.64
22775;BME280;11554;51.106;3.684;2023-05-22T17:45:00;101737.01999999999;;;19.04;89.59
22775;BME280;11554;51.106;3.684;2023-05-22T17:50:00;101744.67;;;18.76;90.13
22775;BME280;11554;51.106;3.684;2023-05-22T17:55:00;101755.58;;;18.31;90.93
22775;BME280;11554;51.106;3.684;2023-05-22T18:00:00;101760.1;;;18.03;91.56
22775;BME280;11554;51.106;3.684;2023-05-22T18:05:00;101773.43;;;17.84;92.42
22775;BME280;11554;51.106;3.684;2023-05-22T18:10:00;101779.71;;;17.79;93.05
22775;BME280;11554;51.106;3.684;2023-05-22T18:15:00;101791.83;;;17.56;93.12
22775;BME280;11554;51.106;3.684;2023-05-22T18:20:00;101804.89;;;17.20;94.24
22775;BME280;11554;51.106;3.684;2023-05-22T18:25:00;101810.55;;;16.98;95.37
22775;BME280;11554;51.106;3.684;2023-05-22T18:30:00;101821.45000000001;;;16.68;96.44
22775;BME280;11554;51.106;3.684;2023-05-22T18:35:00;101830.22;;;16.45;97.19
22775;BME280;11554;51.106;3.684;2023-05-22T18:40:00;101836.42;;;16.18;98.43
22775;BME280;11554;51.106;3.684;2023-05-22T18:45:00;101837.77;;;15.91;100.0
22775;BME280;11554;51.106;3.684;2023-05-22T18:50:00;101838.58;;;15.71;100.0
22775;BME280;11554;51.106;3.684;2023-05-22T18:55:00;101837.73;;;15.56;100.0
22775;BME280;11554;51.106;3.684;2023-05-22T19:00:00;101839.37;;;15.48;100.0
22775;BME280;11554;51.106;3.684;2023-05-22T19:05:00;101836.65;;;15.35;100.0
22775;BME280;11554;51.106;3.684;2023-05-22T19:10:00;101836.83;;;15.26;100.0
22775;BME280;11554;51.106;3.684;2023-05-22T19:15:00;101844.26;;;15.12;100.0
22775;BME280;11554;51.106;3.684;2023-05-22T19:20:00;101853.34;;;15.01;100.0
22775;BME280;11554;51.106;3.684;2023-05-22T19:25:00;101866.42;;;14.89;100.0
22775;BME280;11554;51.106;3.684;2023-05-22T19:30:00;101871.01;;;14.67;100.0
22775;BME280;11554;51.106;3.684;2023-05-22T19:35:00;101872.96;;;14.54;100.0
22775;BME280;11554;51.106;3.684;2023-05-22T19:40:00;101875.2;;;14.48;100.0
22775;BME280;11554;51.106;3.684;2023-05-22T19:45:00;101883.52;;;14.45;100.0
22775;BME280;11554;51.106;3.684;2023-05-22T19:50:00;101890.73;;;14.30;100.0
22775;BME280;11554;51.106;3.684;2023-05-22T19:55:00;101885.24;;;14.18;100.0
22775;BME280;11554;51.106;3.684;2023-05-22T20:00:00;101895.09000000001;;;14.15;100.0
22775;BME280;11554;51.106;3.684;2023-05-22T20:05:00;101903.12;;;14.03;100.0
22775;BME280;11554;51.106;3.684;2023-05-22T20:10:00;101916.9;;;14.05;100.0
22775;BME280;11554;51.106;3.684;2023-05-22T20:15:00;101918.51000000001;;;13.85;100.0
22775;BME280;11554;51.106;3.684;2023-05-22T20:20:00;101931.12999999999;;;13.76;100.0
22775;BME280;11554;51.106;3.684;2023-05-22T20:25:00;101951.98000000001;;;13.70;100.0
22775;BME280;11554;51.106;3.684;2023-05-22T20:30:00;101956.78;;;13.67;100.0
22775;BME280;11554;51.106;3.684;2023-05-22T20:35:00;101965.45;;;13.58;100.0
22775;BME280;11554;51.106;3.684;2023-05-22T20:40:00;101970.03;;;13.47;100.0
22775;BME280;11554;51.106;3.684;2023-05-22T20:45:00;101971.7;;;13.43;100.0
22775;BME280;11554;51.106;3.684;2023-05-22T20:50:00;101978.67;;;13.40;100.0
22775;BME280;11554;51.106;3.684;2023-05-22T20:55:00;101979.66;;;13.38;100.0
22775;BME280;11554;51.106;3.684;2023-05-22T21:00:00;101995.86;;;13.34;100.0
22775;BME280;11554;51.106;3.684;2023-05-22T21:05:00;102004.11;;;13.32;100.0
22775;BME280;11554;51.106;3.684;2023-05-22T21:10:00;102004.26999999999;;;13.23;100.0
22775;BME280;11554;51.106;3.684;2023-05-22T21:15:00;102000.06;;;13.16;100.0
22775;BME280;11554;51.106;3.684;2023-05-22T21:20:00;102005.24;;;13.09;100.0
22775;BME280;11554;51.106;3.684;2023-05-22T21:25:00;102009.97;;;13.05;100.0
22775;BME280;11554;51.106;3.684;2023-05-22T21:30:00;102010.19;;;12.98;100.0
22775;BME280;11554;51.106;3.684;2023-05-22T21:35:00;102017.88;;;12.80;100.0
22775;BME280;11554;51.106;3.684;2023-05-22T21:40:00;102011.3;;;12.73;100.0
22775;BME280;11554;51.106;3.684;2023-05-22T21:45:00;102019.78;;;12.73;100.0
22775;BME280;11554;51.106;3.684;2023-05-22T21:50:00;102019.56;;;12.72;100.0
22775;BME280;11554;51.106;3.684;2023-05-22T21:55:00;102025.03;;;12.69;100.0
22775;BME280;11554;51.106;3.684;2023-05-22T22:00:00;102022.58;;;12.65;100.0
22775;BME280;11554;51.106;3.684;2023-05-22T22:05:00;102033.67;;;12.60;100.0
22775;BME280;11554;51.106;3.684;2023-05-22T22:10:00;102042.58;;;12.54;100.0
22775;BME280;11554;51.106;3.684;2023-05-22T22:15:00;102048.78;;;12.49;100.0
22775;BME280;11554;51.106;3.684;2023-05-22T22:20:00;102050.9;;;12.46;100.0
22775;BME280;11554;51.106;3.684;2023-05-22T22:25:00;102042.72;;;12.45;100.0
22775;BME280;11554;51.106;3.684;2023-05-22T22:30:00;102038.78;;;12.45;100.0
22775;BME280;11554;51.106;3.684;2023-05-22T22:35:00;102043.26999999999;;;12.46;100.0
22775;BME280;11554;51.106;3.684;2023-05-22T22:40:00;102046.06;;;12.42;100.0
22775;BME280;11554;51.106;3.684;2023-05-22T22:45:00;102041.44;;;12.41;100.0
22775;BME280;11554;51.106;3.684;2023-05-22T22:50:00;102042.48999999999;;;12.34;100.0
22775;BME280;11554;51.106;3.684;2023-05-22T22:55:00;102046.51;;;12.35;100.0
22775;BME280;11554;51.106;3.684;2023-05-22T23:00:00;102052.22;;;12.36;100.0
22775;BME280;11554;51.106;3.684;2023-05-22T23:05:00;102039.47;;;12.34;100.0
22775;BME280;11554;51.106;3.684;2023-05-22T23:10:00;102041.27;;;12.34;100.0
22775;BME280;11554;51.106;3.684;2023-05-22T23:15:00;102037.23999999999;;;12.36;100.0
22775;BME280;11554;51.106;3.684;2023-05-22T23:20:00;102036.51999999999;;;12.36;100.0
22775;BME280;11554;51.106;3.684;2023-05-22T23:25:00;102046.45000000001;;;12.39;100.0
22775;BME280;11554;51.106;3.684;2023-05-22T23:30:00;102059.33;;;12.40;100.0
22775;BME280;11554;51.106;3.684;2023-05-22T23:35:00;102058.67;;;12.42;100.0
22775;BME280;11554;51.106;3.684;2023-05-22T23:40:00;102061.78;;;12.42;100.0
22775;BME280;11554;51.106;3.684;2023-05-22T23:45:00;102057.2;;;12.43;100.0
22775;BME280;11554;51.106;3.684;2023-05-22T23:50:00;102055.95;;;12.45;100.0
22775;BME280;11554;51.106;3.684;2023-05-22T23:55:00;102053.63;;;12.48;100.0
